Time;durP1;ratioP1;P1;durP2;ratioP2;P2;SDS_P1;SDS_P2;PMS_P1;PMS_P2;Temp;Humidity;BMP_temperature;BMP_pressure;BME280_temperature;BME280_humidity;BME280_pressure;Samples;Min_cycle;Max_cycle;Signal;HPM_P1;HPM_P2
2023/11/13 00:01:10;;;;;;;2.30;0.70;;;6.10;99.90;;;;;;5095770;28;20823;-77
2023/11/13 00:03:37;;;;;;;0.50;0.50;;;6.20;99.90;;;;;;5095774;28;20574;-77
2023/11/13 00:06:04;;;;;;;0.90;0.90;;;6.30;99.90;;;;;;5095709;28;20443;-77
2023/11/13 00:08:32;;;;;;;1.23;0.90;;;6.30;99.90;;;;;;5100305;28;20436;-78
2023/11/13 00:10:58;;;;;;;1.70;0.80;;;6.30;99.90;;;;;;5099994;28;20518;-78
2023/11/13 00:13:27;;;;;;;0.60;0.60;;;6.40;99.90;;;;;;5100266;28;21019;-78
2023/11/13 00:15:54;;;;;;;0.50;0.50;;;6.40;99.90;;;;;;5097303;28;20570;-78
2023/11/13 00:18:21;;;;;;;0.73;0.60;;;6.50;99.90;;;;;;5101696;28;20940;-78
2023/11/13 00:20:48;;;;;;;1.30;0.60;;;6.50;99.90;;;;;;5101018;28;20866;-78
2023/11/13 00:23:15;;;;;;;1.00;0.83;;;6.50;99.90;;;;;;5098265;28;20553;-78
2023/11/13 00:25:42;;;;;;;0.83;0.60;;;6.60;99.90;;;;;;5095367;28;20448;-78
2023/11/13 00:28:09;;;;;;;0.80;0.80;;;6.70;99.90;;;;;;5095300;28;20448;-78
2023/11/13 00:30:37;;;;;;;3.17;0.83;;;6.70;99.90;;;;;;5095248;28;20472;-78
2023/11/13 00:33:04;;;;;;;0.60;0.60;;;6.80;99.90;;;;;;5095197;28;20497;-78
2023/11/13 00:35:31;;;;;;;0.50;0.50;;;6.80;99.90;;;;;;5095067;28;20439;-78
2023/11/13 00:37:58;;;;;;;1.03;0.50;;;6.90;99.90;;;;;;5095117;28;20458;-78
2023/11/13 00:40:25;;;;;;;1.37;0.70;;;6.90;99.90;;;;;;5095084;28;20469;-78
2023/11/13 00:42:52;;;;;;;0.70;0.70;;;7.00;99.90;;;;;;5094656;28;20452;-78
2023/11/13 00:45:19;;;;;;;1.20;0.60;;;7.00;99.90;;;;;;5094763;28;20932;-78
2023/11/13 00:47:47;;;;;;;0.60;0.60;;;7.00;99.90;;;;;;5094927;28;20447;-78
2023/11/13 00:50:14;;;;;;;0.40;0.40;;;7.00;99.90;;;;;;5094852;28;20551;-78
2023/11/13 00:52:41;;;;;;;6.23;0.73;;;7.10;99.90;;;;;;5094747;28;20489;-78
2023/11/13 00:55:10;;;;;;;0.43;0.40;;;7.00;99.90;;;;;;5094737;28;20439;-78
2023/11/13 00:57:37;;;;;;;0.87;0.57;;;7.10;99.90;;;;;;5094809;28;20443;-78
2023/11/13 01:00:05;;;;;;;1.33;0.80;;;7.10;99.90;;;;;;5094655;28;20915;-78
2023/11/13 01:02:32;;;;;;;0.60;0.60;;;7.10;99.90;;;;;;5094677;28;20444;-78
2023/11/13 01:05:00;;;;;;;0.60;0.60;;;7.00;99.90;;;;;;5094195;28;20479;-78
2023/11/13 01:07:27;;;;;;;1.77;0.80;;;7.10;99.90;;;;;;5095147;28;20448;-78
2023/11/13 01:09:55;;;;;;;3.90;0.73;;;7.20;99.90;;;;;;5094520;28;20475;-78
2023/11/13 01:12:22;;;;;;;1.80;0.73;;;7.20;99.90;;;;;;5095318;28;20448;-78
2023/11/13 01:14:49;;;;;;;1.13;0.77;;;7.20;99.90;;;;;;5095173;28;20444;-78
2023/11/13 01:17:16;;;;;;;0.50;0.40;;;7.20;99.90;;;;;;5094129;28;20808;-78
2023/11/13 01:19:43;;;;;;;1.17;0.70;;;7.30;99.90;;;;;;5094287;28;20528;-78
2023/11/13 01:22:11;;;;;;;3.17;1.20;;;7.30;99.90;;;;;;5094364;28;20436;-78
2023/11/13 01:24:38;;;;;;;1.07;0.97;;;7.30;99.90;;;;;;5093864;28;20583;-78
2023/11/13 01:27:05;;;;;;;1.23;0.60;;;7.30;99.90;;;;;;5094263;28;20523;-78
2023/11/13 01:29:32;;;;;;;2.33;1.07;;;7.30;99.90;;;;;;5094164;28;20460;-78
2023/11/13 01:32:00;;;;;;;1.50;1.13;;;7.30;99.90;;;;;;5094153;28;20825;-78
2023/11/13 01:34:27;;;;;;;0.60;0.60;;;7.30;99.90;;;;;;5094054;28;20483;-78
2023/11/13 01:36:54;;;;;;;1.47;0.83;;;7.40;99.90;;;;;;5093881;28;20436;-78
2023/11/13 01:39:22;;;;;;;0.50;0.50;;;7.40;99.90;;;;;;5093976;28;20522;-78
2023/11/13 01:41:49;;;;;;;1.53;1.33;;;7.40;99.90;;;;;;5093792;28;20924;-78
2023/11/13 01:44:16;;;;;;;0.70;0.70;;;7.40;99.90;;;;;;5093631;28;21000;-78
2023/11/13 01:46:43;;;;;;;1.10;0.63;;;7.40;99.90;;;;;;5093821;28;20455;-78
2023/11/13 01:49:11;;;;;;;2.60;1.07;;;7.40;99.90;;;;;;5093878;28;20819;-78
2023/11/13 01:51:38;;;;;;;3.50;0.83;;;7.50;99.90;;;;;;5093902;28;20448;-78
2023/11/13 01:54:06;;;;;;;0.90;0.60;;;7.50;99.90;;;;;;5093893;28;20436;-78
2023/11/13 01:56:35;;;;;;;0.43;0.43;;;7.50;99.90;;;;;;5093985;28;20448;-78
2023/11/13 01:59:02;;;;;;;0.70;0.50;;;7.60;99.90;;;;;;5093776;28;20436;-78
2023/11/13 02:01:31;;;;;;;0.57;0.57;;;7.60;99.90;;;;;;5093958;28;20477;-78
2023/11/13 02:03:58;;;;;;;0.67;0.40;;;7.60;99.90;;;;;;5093373;28;20476;-78
2023/11/13 02:06:25;;;;;;;1.13;0.50;;;7.60;99.90;;;;;;5093810;28;20506;-78
2023/11/13 02:08:51;;;;;;;3.60;1.00;;;7.80;99.90;;;;;;5093428;28;20813;-78
2023/11/13 02:11:21;;;;;;;3.13;0.73;;;7.70;99.90;;;;;;5093345;28;20471;-78
2023/11/13 02:13:51;;;;;;;1.00;0.90;;;7.80;99.90;;;;;;5093702;28;20515;-78
2023/11/13 02:16:18;;;;;;;0.50;0.50;;;7.70;99.90;;;;;;5093482;28;20923;-78
2023/11/13 02:18:45;;;;;;;2.63;0.60;;;7.70;99.90;;;;;;5093509;28;20444;-78
2023/11/13 02:21:12;;;;;;;0.40;0.30;;;7.70;99.90;;;;;;5093625;28;20450;-78
2023/11/13 02:23:40;;;;;;;0.67;0.40;;;7.70;99.90;;;;;;5093461;28;20844;-78
2023/11/13 02:26:13;;;;;;;0.60;0.40;;;7.80;99.90;;;;;;5093575;28;20493;-78
2023/11/13 02:28:40;;;;;;;0.40;0.40;;;7.80;99.90;;;;;;5093262;28;20428;-78
2023/11/13 02:31:07;;;;;;;0.50;0.50;;;7.90;99.90;;;;;;5093501;28;21003;-78
2023/11/13 02:33:34;;;;;;;1.60;0.50;;;7.90;99.90;;;;;;5093703;28;20455;-78
2023/11/13 02:36:00;;;;;;;2.10;0.30;;;7.90;99.90;;;;;;5094059;28;20452;-78
2023/11/13 02:38:27;;;;;;;0.90;0.53;;;7.90;99.90;;;;;;5094444;28;20435;-78
2023/11/13 02:40:57;;;;;;;1.03;0.50;;;8.00;99.90;;;;;;5097414;28;20468;-78
2023/11/13 02:43:24;;;;;;;0.50;0.50;;;8.00;99.90;;;;;;5097676;28;20826;-78
2023/11/13 02:45:51;;;;;;;1.30;0.40;;;8.10;99.90;;;;;;5097633;28;20444;-78
2023/11/13 02:48:18;;;;;;;0.40;0.30;;;8.10;99.90;;;;;;5097767;28;20493;-78
2023/11/13 02:50:45;;;;;;;0.60;0.40;;;8.10;99.90;;;;;;5097721;28;20460;-78
2023/11/13 02:53:13;;;;;;;1.63;0.30;;;8.10;99.90;;;;;;5097753;28;20446;-78
2023/11/13 02:55:39;;;;;;;0.60;0.40;;;8.10;99.90;;;;;;5097498;28;20538;-78
2023/11/13 02:58:08;;;;;;;0.60;0.50;;;8.10;99.90;;;;;;5097920;28;20443;-78
2023/11/13 03:00:34;;;;;;;0.57;0.57;;;8.20;99.90;;;;;;5097333;28;20463;-79
2023/11/13 03:03:01;;;;;;;3.90;0.57;;;8.20;99.90;;;;;;5097935;28;20800;-78
2023/11/13 03:05:29;;;;;;;0.40;0.40;;;8.20;99.90;;;;;;5097084;28;20579;-78
2023/11/13 03:07:57;;;;;;;0.40;0.40;;;8.20;99.90;;;;;;5096819;28;20452;-78
2023/11/13 03:10:24;;;;;;;0.80;0.30;;;8.30;99.90;;;;;;5096712;28;21010;-78
2023/11/13 03:12:51;;;;;;;0.80;0.43;;;8.30;99.90;;;;;;5097055;28;20435;-78
2023/11/13 03:15:20;;;;;;;0.40;0.40;;;8.30;99.90;;;;;;5096851;28;20475;-78
2023/11/13 03:17:46;;;;;;;0.50;0.30;;;8.30;99.90;;;;;;5096870;28;20444;-78
2023/11/13 03:20:13;;;;;;;0.40;0.37;;;8.40;99.90;;;;;;5096784;28;20474;-78
2023/11/13 03:22:40;;;;;;;0.30;0.30;;;8.50;99.90;;;;;;5097554;28;20447;-78
2023/11/13 03:25:08;;;;;;;0.50;0.40;;;8.50;99.90;;;;;;5097065;28;20467;-78
2023/11/13 03:27:35;;;;;;;0.37;0.30;;;8.50;99.90;;;;;;5096803;28;20447;-78
2023/11/13 03:30:03;;;;;;;1.37;0.47;;;8.60;99.90;;;;;;5096884;28;20467;-78
2023/11/13 03:32:31;;;;;;;0.30;0.30;;;8.60;99.90;;;;;;5096629;28;20539;-78
2023/11/13 03:34:58;;;;;;;0.30;0.30;;;8.60;99.90;;;;;;5096654;28;20489;-78
2023/11/13 03:37:25;;;;;;;0.30;0.30;;;8.60;99.90;;;;;;5096199;28;20948;-78
2023/11/13 03:39:51;;;;;;;0.40;0.40;;;8.70;99.90;;;;;;5096246;28;20466;-77
2023/11/13 03:42:18;;;;;;;0.30;0.30;;;8.70;99.90;;;;;;5096376;28;20444;-78
2023/11/13 03:44:46;;;;;;;0.30;0.30;;;8.70;99.90;;;;;;5096465;28;20479;-78
2023/11/13 03:47:13;;;;;;;0.30;0.20;;;8.70;99.90;;;;;;5096220;28;20440;-77
2023/11/13 03:49:41;;;;;;;0.30;0.30;;;8.80;99.90;;;;;;5095054;28;20980;-77
2023/11/13 03:52:13;;;;;;;0.40;0.40;;;8.80;99.90;;;;;;5095879;28;20447;-78
2023/11/13 03:54:40;;;;;;;0.40;0.30;;;8.90;99.90;;;;;;5096080;28;20420;-78
2023/11/13 03:57:06;;;;;;;0.87;0.37;;;8.90;99.90;;;;;;5095837;28;20444;-78
2023/11/13 03:59:33;;;;;;;4.13;0.67;;;9.00;99.90;;;;;;5096160;28;20464;-78
2023/11/13 04:02:00;;;;;;;0.30;0.30;;;9.00;99.90;;;;;;5096145;28;20440;-78
2023/11/13 04:04:27;;;;;;;0.70;0.40;;;9.10;99.90;;;;;;5096059;28;20483;-79
2023/11/13 04:06:55;;;;;;;1.10;0.33;;;9.10;99.90;;;;;;5096083;28;20444;-79
2023/11/13 04:09:22;;;;;;;0.37;0.30;;;9.20;99.90;;;;;;5096006;28;20481;-78
2023/11/13 04:11:49;;;;;;;0.30;0.30;;;9.20;99.90;;;;;;5096123;28;20447;-78
2023/11/13 04:14:16;;;;;;;0.30;0.30;;;9.20;99.90;;;;;;5095912;28;20522;-78
2023/11/13 04:16:43;;;;;;;0.30;0.30;;;9.20;99.90;;;;;;5095623;28;20443;-78
2023/11/13 04:19:10;;;;;;;0.40;0.30;;;9.20;99.90;;;;;;5095556;28;20513;-78
2023/11/13 04:21:36;;;;;;;1.20;0.50;;;9.20;99.90;;;;;;5095577;28;20451;-78
2023/11/13 04:24:06;;;;;;;0.50;0.30;;;9.20;99.90;;;;;;5095332;28;20443;-78
2023/11/13 04:26:32;;;;;;;2.30;0.50;;;9.20;99.90;;;;;;5095064;28;20444;-78
2023/11/13 04:28:59;;;;;;;0.30;0.30;;;9.20;99.90;;;;;;5094961;28;21035;-78
2023/11/13 04:31:26;;;;;;;0.40;0.40;;;9.10;99.90;;;;;;5095320;28;20440;-78
2023/11/13 04:33:53;;;;;;;0.50;0.50;;;9.10;99.90;;;;;;5095812;28;20440;-78
2023/11/13 04:36:20;;;;;;;4.43;0.70;;;9.20;99.90;;;;;;5095156;28;20472;-78
2023/11/13 04:38:47;;;;;;;0.40;0.30;;;9.10;99.90;;;;;;5095128;28;20448;-78
2023/11/13 04:41:16;;;;;;;0.70;0.70;;;9.10;99.90;;;;;;5095103;28;20446;-78
2023/11/13 04:43:43;;;;;;;0.50;0.40;;;9.10;99.90;;;;;;5095089;28;20501;-78
2023/11/13 04:46:11;;;;;;;0.40;0.30;;;9.10;99.90;;;;;;5094872;28;20490;-78
2023/11/13 04:48:39;;;;;;;0.30;0.30;;;9.10;99.90;;;;;;5094947;28;20543;-78
2023/11/13 04:51:06;;;;;;;0.40;0.40;;;9.10;99.90;;;;;;5094493;28;21028;-78
2023/11/13 04:53:32;;;;;;;0.60;0.40;;;9.10;99.90;;;;;;5094901;28;20443;-78
2023/11/13 04:55:59;;;;;;;0.50;0.40;;;9.10;99.90;;;;;;5094826;28;20442;-78
2023/11/13 04:58:27;;;;;;;1.97;0.50;;;9.00;99.90;;;;;;5094830;28;20448;-78
2023/11/13 05:00:54;;;;;;;0.60;0.43;;;9.10;99.90;;;;;;5094399;28;20456;-78
2023/11/13 05:03:21;;;;;;;1.53;0.43;;;9.10;99.90;;;;;;5094936;28;20501;-78
2023/11/13 05:05:48;;;;;;;1.07;0.37;;;9.00;99.90;;;;;;5094631;28;20480;-78
2023/11/13 05:08:15;;;;;;;0.40;0.40;;;9.10;99.90;;;;;;5094592;28;20448;-78
2023/11/13 05:10:42;;;;;;;0.50;0.40;;;9.10;99.90;;;;;;5118412;22;20549;-80
2023/11/13 05:13:09;;;;;;;0.40;0.30;;;9.10;99.90;;;;;;5095368;28;20428;-81
2023/11/13 05:15:37;;;;;;;4.07;0.53;;;9.00;99.90;;;;;;5094717;28;20858;-81
2023/11/13 05:18:07;;;;;;;1.63;0.53;;;9.00;99.90;;;;;;5095822;28;20813;-80
2023/11/13 05:20:39;;;;;;;5.20;0.40;;;9.00;99.90;;;;;;5098685;28;20517;-80
2023/11/13 05:23:06;;;;;;;1.93;0.53;;;9.00;99.90;;;;;;5094797;28;20481;-81
2023/11/13 05:25:33;;;;;;;1.00;0.50;;;9.00;99.90;;;;;;5094607;28;20526;-82
2023/11/13 05:27:59;;;;;;;4.30;1.10;;;9.00;99.90;;;;;;5094602;28;20444;-81
2023/11/13 05:30:26;;;;;;;0.97;0.40;;;9.00;99.90;;;;;;5095345;28;20494;-81
2023/11/13 05:32:54;;;;;;;1.17;0.50;;;9.00;99.90;;;;;;5094497;28;20440;-81
2023/11/13 05:35:21;;;;;;;1.73;0.60;;;9.00;99.90;;;;;;5094300;28;20436;-81
2023/11/13 05:37:48;;;;;;;0.50;0.40;;;9.00;99.90;;;;;;5094026;28;21024;-81
2023/11/13 05:40:16;;;;;;;0.70;0.40;;;9.00;99.90;;;;;;5094186;28;20460;-80
2023/11/13 05:42:44;;;;;;;4.93;0.43;;;9.00;99.90;;;;;;5094302;28;20472;-81
2023/11/13 05:45:14;;;;;;;0.53;0.40;;;9.00;99.90;;;;;;5094170;28;20488;-81
2023/11/13 05:47:41;;;;;;;4.20;0.50;;;9.00;99.90;;;;;;5094369;28;20901;-81
2023/11/13 05:50:09;;;;;;;0.70;0.60;;;9.00;99.90;;;;;;5094073;28;20464;-81
2023/11/13 05:52:37;;;;;;;12.43;1.07;;;9.00;99.90;;;;;;5094024;28;20790;-81
2023/11/13 05:55:05;;;;;;;1.33;0.50;;;9.00;99.90;;;;;;5093622;28;20444;-81
2023/11/13 05:57:32;;;;;;;0.60;0.60;;;9.00;99.90;;;;;;5093900;28;20444;-81
2023/11/13 05:59:59;;;;;;;0.40;0.37;;;8.90;99.90;;;;;;5093934;28;20558;-81
2023/11/13 06:02:26;;;;;;;3.20;0.50;;;9.00;99.90;;;;;;5093915;28;20451;-81
2023/11/13 06:04:52;;;;;;;0.40;0.30;;;9.00;99.90;;;;;;5094664;28;20488;-81
2023/11/13 06:07:21;;;;;;;1.63;0.70;;;9.10;99.90;;;;;;5093898;28;20456;-81
2023/11/13 06:09:49;;;;;;;1.57;0.50;;;9.00;99.90;;;;;;5093512;28;20475;-81
2023/11/13 06:12:15;;;;;;;0.30;0.30;;;9.00;99.90;;;;;;5093470;28;20420;-81
2023/11/13 06:14:43;;;;;;;1.30;0.50;;;9.00;99.90;;;;;;5093052;28;20444;-81
2023/11/13 06:17:11;;;;;;;2.30;0.73;;;9.00;99.90;;;;;;5093533;28;21001;-81
2023/11/13 06:19:39;;;;;;;3.13;0.50;;;9.00;99.90;;;;;;5093460;28;20948;-81
2023/11/13 06:22:09;;;;;;;2.63;0.50;;;9.10;99.90;;;;;;5093721;28;20553;-81
2023/11/13 06:24:37;;;;;;;3.40;0.70;;;9.10;99.90;;;;;;5093852;28;20437;-81
2023/11/13 06:27:05;;;;;;;1.23;0.80;;;9.10;99.90;;;;;;5093872;28;20443;-81
2023/11/13 06:29:32;;;;;;;1.03;0.50;;;9.10;99.90;;;;;;5093629;28;20864;-81
2023/11/13 06:31:58;;;;;;;4.00;0.97;;;9.10;99.90;;;;;;5094305;28;20444;-80
2023/11/13 06:34:25;;;;;;;0.40;0.40;;;9.10;99.90;;;;;;5094245;28;20447;-81
2023/11/13 06:36:52;;;;;;;3.40;0.60;;;9.10;99.90;;;;;;5094717;28;20443;-81
2023/11/13 06:39:19;;;;;;;0.80;0.40;;;9.10;99.90;;;;;;5093943;28;20968;-81
2023/11/13 06:41:48;;;;;;;0.70;0.50;;;9.20;99.90;;;;;;5093571;28;20464;-79
2023/11/13 06:44:15;;;;;;;1.93;0.90;;;9.20;99.90;;;;;;5094001;28;20452;-81
2023/11/13 06:46:42;;;;;;;0.60;0.43;;;9.20;99.90;;;;;;5093776;28;20523;-81
2023/11/13 06:49:09;;;;;;;3.63;1.00;;;9.20;99.90;;;;;;5093946;28;20440;-80
2023/11/13 06:51:36;;;;;;;2.10;0.40;;;9.20;99.90;;;;;;5093486;28;20471;-81
2023/11/13 06:54:03;;;;;;;2.57;0.50;;;9.20;99.90;;;;;;5093564;28;20436;-81
2023/11/13 06:56:32;;;;;;;0.47;0.47;;;9.20;99.90;;;;;;5093386;28;20862;-81
2023/11/13 06:59:00;;;;;;;0.77;0.40;;;9.20;99.90;;;;;;5093421;28;20428;-82
2023/11/13 07:01:27;;;;;;;0.40;0.40;;;9.20;99.90;;;;;;5093397;28;20816;-81
2023/11/13 07:03:54;;;;;;;0.30;0.30;;;9.20;99.90;;;;;;5094108;28;20444;-81
2023/11/13 07:06:20;;;;;;;0.87;0.53;;;9.20;99.90;;;;;;5092886;28;20479;-81
2023/11/13 07:08:47;;;;;;;0.70;0.40;;;9.20;99.90;;;;;;5093014;28;20437;-81
2023/11/13 07:11:17;;;;;;;4.77;0.70;;;9.20;99.90;;;;;;5092755;28;20486;-81
2023/11/13 07:13:44;;;;;;;0.50;0.30;;;9.20;99.90;;;;;;5093145;28;20512;-81
2023/11/13 07:16:14;;;;;;;2.83;0.40;;;9.10;99.90;;;;;;5093516;28;20482;-81
2023/11/13 07:18:41;;;;;;;0.40;0.30;;;9.10;99.90;;;;;;5093351;28;20472;-80
2023/11/13 07:21:07;;;;;;;0.40;0.30;;;9.20;99.90;;;;;;5093177;28;20483;-81
2023/11/13 07:23:36;;;;;;;0.40;0.40;;;9.20;99.90;;;;;;5093488;28;20794;-80
2023/11/13 07:26:04;;;;;;;0.30;0.30;;;9.20;99.90;;;;;;5097141;28;20483;-81
2023/11/13 07:28:31;;;;;;;2.10;0.40;;;9.20;99.90;;;;;;5109054;28;20438;-80
2023/11/13 07:30:58;;;;;;;1.47;0.40;;;9.20;99.90;;;;;;5102406;28;20450;-81
2023/11/13 07:33:26;;;;;;;0.40;0.40;;;9.20;99.90;;;;;;5097105;28;20448;-81
2023/11/13 07:35:53;;;;;;;2.20;0.47;;;9.10;99.90;;;;;;5096762;28;20464;-81
2023/11/13 07:38:20;;;;;;;2.90;0.53;;;9.20;99.90;;;;;;5096434;28;20948;-81
2023/11/13 07:40:47;;;;;;;5.23;0.57;;;9.20;99.90;;;;;;5096872;28;20472;-82
2023/11/13 07:43:15;;;;;;;0.40;0.40;;;9.20;99.90;;;;;;5097077;28;20459;-82
2023/11/13 07:45:42;;;;;;;1.17;0.50;;;9.20;99.90;;;;;;5097296;28;20484;-82
2023/11/13 07:48:09;;;;;;;0.47;0.37;;;9.20;99.90;;;;;;5096346;28;20523;-82
2023/11/13 07:50:37;;;;;;;0.30;0.30;;;9.20;99.90;;;;;;5096236;28;20459;-82
2023/11/13 07:53:04;;;;;;;0.50;0.50;;;9.10;99.90;;;;;;5096335;28;20447;-82
2023/11/13 07:55:31;;;;;;;0.50;0.40;;;9.10;99.90;;;;;;5096183;28;20462;-82
2023/11/13 07:57:58;;;;;;;1.63;0.43;;;9.10;99.90;;;;;;5096197;28;20793;-82
2023/11/13 08:00:25;;;;;;;0.50;0.50;;;9.00;99.90;;;;;;5095943;28;20472;-82
2023/11/13 08:02:52;;;;;;;0.60;0.60;;;9.10;99.90;;;;;;5095713;28;20448;-82
2023/11/13 08:05:19;;;;;;;2.27;0.47;;;9.10;99.90;;;;;;5095566;28;20967;-82
2023/11/13 08:07:47;;;;;;;2.10;0.30;;;9.10;99.90;;;;;;5095993;28;20467;-82
2023/11/13 08:10:14;;;;;;;0.30;0.30;;;9.10;99.90;;;;;;5096207;28;20488;-82
2023/11/13 08:12:43;;;;;;;0.40;0.30;;;9.10;99.90;;;;;;5096492;28;20845;-83
2023/11/13 08:15:12;;;;;;;0.40;0.40;;;9.00;99.90;;;;;;5100097;28;20542;-82
2023/11/13 08:17:39;;;;;;;0.90;0.43;;;9.10;99.90;;;;;;5095949;28;20929;-82
2023/11/13 08:20:09;;;;;;;0.40;0.40;;;9.10;99.90;;;;;;5095938;28;20521;-83
2023/11/13 08:22:36;;;;;;;1.73;0.43;;;9.00;99.90;;;;;;5095813;28;20505;-84
2023/11/13 08:25:05;;;;;;;0.30;0.30;;;9.00;99.90;;;;;;5096244;28;20827;-83
2023/11/13 08:27:32;;;;;;;0.50;0.40;;;9.00;99.90;;;;;;5095909;28;20488;-82
2023/11/13 08:29:58;;;;;;;0.37;0.30;;;9.00;99.90;;;;;;5095597;28;20472;-82
2023/11/13 08:32:26;;;;;;;2.57;0.63;;;9.10;99.90;;;;;;5095672;28;20439;-82
2023/11/13 08:34:54;;;;;;;0.40;0.30;;;9.00;99.90;;;;;;5096166;28;20490;-82
2023/11/13 08:37:21;;;;;;;0.30;0.30;;;9.00;99.90;;;;;;5095459;28;20452;-82
2023/11/13 08:39:48;;;;;;;0.60;0.40;;;9.00;99.90;;;;;;5095637;28;20467;-82
2023/11/13 08:42:17;;;;;;;0.73;0.30;;;9.00;99.90;;;;;;5096004;28;20444;-82
2023/11/13 08:44:44;;;;;;;0.67;0.40;;;9.10;99.90;;;;;;5095467;28;20958;-83
2023/11/13 08:47:11;;;;;;;0.40;0.40;;;9.00;99.90;;;;;;5095060;28;20991;-82
2023/11/13 08:49:41;;;;;;;0.30;0.30;;;9.10;99.90;;;;;;5095661;28;20446;-82
2023/11/13 08:52:08;;;;;;;0.33;0.30;;;9.10;99.90;;;;;;5095828;28;20425;-82
2023/11/13 08:54:36;;;;;;;0.40;0.40;;;9.10;99.90;;;;;;5095863;28;20475;-82
2023/11/13 08:57:06;;;;;;;0.30;0.30;;;9.10;99.90;;;;;;5095233;28;20436;-82
2023/11/13 08:59:35;;;;;;;0.93;0.63;;;9.20;99.90;;;;;;5095440;28;20425;-82
2023/11/13 09:02:05;;;;;;;0.40;0.40;;;9.30;99.90;;;;;;5095098;28;20482;-81
2023/11/13 09:04:32;;;;;;;1.17;0.50;;;9.30;99.90;;;;;;5095544;28;20970;-82
2023/11/13 09:06:59;;;;;;;0.30;0.30;;;9.30;99.90;;;;;;5094786;28;20991;-82
2023/11/13 09:09:26;;;;;;;3.43;0.50;;;9.40;99.90;;;;;;5095423;28;20819;-82
2023/11/13 09:11:53;;;;;;;0.90;0.43;;;9.40;99.90;;;;;;5094558;28;20503;-81
2023/11/13 09:14:22;;;;;;;5.60;0.63;;;9.50;99.90;;;;;;5094489;28;20491;-82
2023/11/13 09:16:50;;;;;;;0.37;0.30;;;9.50;99.90;;;;;;5095278;28;20451;-80
2023/11/13 09:19:17;;;;;;;3.80;0.70;;;9.60;99.90;;;;;;5096117;28;20440;-80
2023/11/13 09:21:45;;;;;;;0.40;0.33;;;9.50;99.90;;;;;;5095145;28;20979;-81
2023/11/13 09:24:13;;;;;;;1.03;0.60;;;9.60;99.90;;;;;;5095273;28;20448;-81
2023/11/13 09:26:40;;;;;;;1.20;1.20;;;9.70;99.90;;;;;;5094635;28;20479;-81
2023/11/13 09:29:08;;;;;;;1.47;0.50;;;9.70;99.90;;;;;;5095061;28;20443;-81
2023/11/13 09:31:35;;;;;;;0.50;0.33;;;9.80;99.90;;;;;;5096012;28;20460;-80
2023/11/13 09:34:07;;;;;;;1.13;0.40;;;9.80;99.90;;;;;;5096479;28;20440;-80
2023/11/13 09:36:34;;;;;;;0.63;0.63;;;9.90;99.90;;;;;;5096232;28;20431;-81
2023/11/13 09:39:03;;;;;;;0.40;0.30;;;10.00;99.90;;;;;;5105478;28;20948;-80
2023/11/13 09:41:35;;;;;;;1.23;0.30;;;10.10;99.90;;;;;;5094318;28;20559;-81
2023/11/13 09:44:03;;;;;;;0.40;0.33;;;10.10;99.90;;;;;;5094758;28;20443;-81
2023/11/13 09:46:32;;;;;;;0.50;0.40;;;10.30;99.90;;;;;;5095109;28;20501;-79
2023/11/13 09:49:00;;;;;;;5.80;0.40;;;10.40;99.90;;;;;;5094158;28;20448;-79
2023/11/13 09:51:29;;;;;;;0.50;0.50;;;10.50;99.90;;;;;;5093951;28;20467;-80
2023/11/13 09:53:57;;;;;;;0.60;0.40;;;10.60;99.90;;;;;;5093830;28;21001;-79
2023/11/13 09:56:24;;;;;;;0.40;0.40;;;10.60;99.90;;;;;;5093704;28;20424;-80
2023/11/13 09:58:50;;;;;;;1.30;0.40;;;10.70;99.90;;;;;;5094261;28;20462;-79
2023/11/13 10:01:20;;;;;;;1.20;0.40;;;10.60;99.90;;;;;;5093469;28;20458;-79
2023/11/13 10:03:46;;;;;;;0.50;0.40;;;10.70;99.90;;;;;;5093849;28;20493;-79
2023/11/13 10:06:14;;;;;;;0.60;0.60;;;10.70;99.90;;;;;;5093510;28;21003;-79
2023/11/13 10:08:47;;;;;;;3.80;2.00;;;10.70;99.90;;;;;;5094121;28;20814;-80
2023/11/13 10:11:14;;;;;;;1.70;0.53;;;10.70;99.90;;;;;;5093582;28;20480;-79
2023/11/13 10:13:41;;;;;;;2.23;0.60;;;10.70;99.90;;;;;;5093813;28;20444;-80
2023/11/13 10:16:18;;;;;;;0.67;0.50;;;10.80;99.90;;;;;;5093999;28;20463;-79
2023/11/13 10:18:46;;;;;;;0.40;0.30;;;10.80;99.90;;;;;;5094968;28;20440;-79
2023/11/13 10:21:21;;;;;;;0.30;0.30;;;10.90;99.90;;;;;;5094662;28;20467;-80
2023/11/13 10:23:49;;;;;;;0.40;0.40;;;10.90;99.90;;;;;;5094951;28;20432;-79
2023/11/13 10:26:26;;;;;;;0.37;0.37;;;10.90;99.90;;;;;;5094420;28;20483;-80
2023/11/13 10:28:53;;;;;;;0.73;0.57;;;10.90;99.90;;;;;;5094632;28;20424;-80
2023/11/13 10:31:23;;;;;;;0.50;0.30;;;11.00;99.90;;;;;;5094780;28;20483;-80
2023/11/13 10:33:56;;;;;;;0.50;0.50;;;11.00;99.90;;;;;;5096142;28;20524;-80
2023/11/13 10:36:23;;;;;;;1.10;0.47;;;11.00;99.90;;;;;;5094989;28;20837;-79
2023/11/13 10:38:52;;;;;;;0.30;0.30;;;11.10;99.90;;;;;;5094832;28;20540;-80
2023/11/13 10:41:22;;;;;;;1.80;0.57;;;11.10;99.90;;;;;;5094756;28;20467;-80
2023/11/13 10:43:48;;;;;;;1.20;0.57;;;11.20;99.90;;;;;;5094023;28;20440;-80
2023/11/13 10:46:28;;;;;;;0.70;0.40;;;11.20;99.90;;;;;;5094046;28;20482;-79
2023/11/13 10:48:56;;;;;;;0.40;0.40;;;11.30;99.90;;;;;;5094292;28;20436;-80
2023/11/13 10:51:25;;;;;;;0.30;0.30;;;11.30;99.90;;;;;;5093886;28;20464;-79
2023/11/13 10:53:54;;;;;;;0.50;0.47;;;11.30;99.90;;;;;;5095184;28;20444;-79
2023/11/13 10:56:21;;;;;;;0.50;0.30;;;11.40;99.90;;;;;;5095192;28;20462;-78
2023/11/13 10:58:49;;;;;;;0.70;0.60;;;11.40;99.90;;;;;;5093571;28;20443;-78
2023/11/13 11:01:24;;;;;;;0.60;0.40;;;11.40;99.90;;;;;;5096560;28;20459;-78
2023/11/13 11:03:56;;;;;;;2.30;0.60;;;11.40;99.90;;;;;;5097570;28;20530;-78
2023/11/13 11:06:24;;;;;;;0.40;0.40;;;11.40;99.90;;;;;;5097511;28;20474;-79
2023/11/13 11:08:58;;;;;;;0.63;0.30;;;11.40;99.90;;;;;;5098882;28;20487;-80
2023/11/13 11:11:30;;;;;;;0.60;0.50;;;11.30;99.90;;;;;;5121143;22;20582;-78
2023/11/13 11:14:00;;;;;;;0.30;0.30;;;11.30;99.90;;;;;;5098067;28;20455;-78
2023/11/13 11:16:31;;;;;;;0.60;0.50;;;11.30;99.90;;;;;;5097685;28;20481;-78
2023/11/13 11:19:06;;;;;;;0.53;0.40;;;11.40;99.90;;;;;;5098015;28;20537;-78
2023/11/13 11:21:44;;;;;;;0.87;0.50;;;11.40;99.90;;;;;;5097334;28;20455;-78
2023/11/13 11:24:32;;;;;;;0.60;0.40;;;11.40;99.90;;;;;;5097682;28;20440;-78
2023/11/13 11:27:00;;;;;;;0.40;0.40;;;11.50;99.90;;;;;;5097492;28;20847;-78
2023/11/13 11:29:36;;;;;;;0.60;0.40;;;11.60;99.90;;;;;;5099637;28;20452;-78
2023/11/13 11:32:19;;;;;;;0.53;0.53;;;11.50;99.90;;;;;;5097759;28;20474;-78
2023/11/13 11:35:01;;;;;;;3.70;0.40;;;11.60;99.90;;;;;;5098971;28;20895;-78
2023/11/13 11:37:27;;;;;;;0.60;0.60;;;11.60;99.90;;;;;;5098090;28;20428;-77
2023/11/13 11:40:03;;;;;;;0.40;0.30;;;11.60;99.90;;;;;;5099072;28;20805;-78
2023/11/13 11:42:31;;;;;;;2.80;0.53;;;11.60;99.90;;;;;;5099040;28;20428;-78
2023/11/13 11:45:01;;;;;;;0.40;0.40;;;11.70;99.90;;;;;;5098349;28;20870;-78
2023/11/13 11:47:28;;;;;;;0.70;0.50;;;11.70;99.90;;;;;;5097780;28;20464;-78
2023/11/13 11:49:57;;;;;;;0.77;0.50;;;11.70;99.90;;;;;;5099538;28;20444;-78
2023/11/13 11:52:50;;;;;;;4.13;0.50;;;11.50;99.90;;;;;;5099748;28;20525;-78
2023/11/13 11:55:19;;;;;;;1.00;0.50;;;11.60;99.90;;;;;;5098326;28;20893;-78
2023/11/13 11:57:47;;;;;;;0.60;0.50;;;11.70;99.90;;;;;;5098728;28;20486;-79
2023/11/13 12:00:19;;;;;;;0.40;0.30;;;11.70;99.90;;;;;;5098970;28;20798;-78
2023/11/13 12:02:46;;;;;;;2.60;0.73;;;11.70;99.90;;;;;;5098207;28;20783;-79
2023/11/13 12:05:13;;;;;;;0.40;0.40;;;11.70;99.90;;;;;;5098095;28;20450;-78
2023/11/13 12:07:40;;;;;;;0.63;0.60;;;11.80;99.90;;;;;;5098755;28;20481;-78
2023/11/13 12:10:09;;;;;;;0.50;0.40;;;11.80;99.90;;;;;;5098416;28;20515;-78
2023/11/13 12:12:38;;;;;;;0.63;0.63;;;11.90;99.90;;;;;;5097142;28;20431;-78
2023/11/13 12:15:07;;;;;;;6.03;0.40;;;11.90;99.90;;;;;;5097997;28;20444;-78
2023/11/13 12:17:35;;;;;;;0.70;0.40;;;11.90;99.90;;;;;;5097863;28;20462;-78
2023/11/13 12:20:02;;;;;;;0.40;0.40;;;11.90;99.90;;;;;;5097937;28;20783;-78
2023/11/13 12:22:29;;;;;;;0.50;0.40;;;12.00;99.90;;;;;;5097660;28;20487;-78
2023/11/13 12:24:56;;;;;;;0.90;0.60;;;12.00;99.90;;;;;;5097440;28;20455;-78
2023/11/13 12:27:25;;;;;;;0.40;0.40;;;11.90;99.90;;;;;;5097492;28;20491;-78
2023/11/13 12:30:02;;;;;;;0.50;0.50;;;11.90;99.90;;;;;;5096272;28;20451;-78
2023/11/13 12:32:29;;;;;;;0.50;0.50;;;12.00;99.90;;;;;;5097476;28;20432;-78
2023/11/13 12:34:57;;;;;;;2.53;0.43;;;12.00;99.90;;;;;;5098191;28;20440;-79
2023/11/13 12:37:25;;;;;;;0.40;0.40;;;12.00;99.90;;;;;;5096876;28;20444;-78
2023/11/13 12:39:54;;;;;;;0.40;0.40;;;12.00;99.90;;;;;;5098504;28;20436;-78
2023/11/13 12:42:21;;;;;;;0.70;0.50;;;12.00;99.90;;;;;;5098369;28;20472;-78
2023/11/13 12:44:48;;;;;;;0.60;0.40;;;11.80;99.90;;;;;;5098742;28;20454;-78
2023/11/13 12:47:16;;;;;;;0.40;0.40;;;12.00;99.90;;;;;;5098204;28;20525;-78
2023/11/13 12:49:44;;;;;;;8.77;0.67;;;12.00;99.90;;;;;;5097063;28;21023;-78
2023/11/13 12:52:16;;;;;;;0.93;0.47;;;12.00;99.90;;;;;;5096856;28;20468;-78
2023/11/13 12:54:44;;;;;;;0.50;0.40;;;12.00;99.90;;;;;;5096498;28;20429;-78
2023/11/13 12:57:15;;;;;;;0.30;0.30;;;12.00;99.90;;;;;;5096439;28;20493;-78
2023/11/13 12:59:43;;;;;;;0.43;0.43;;;12.00;99.90;;;;;;5097701;28;20428;-78